sensor_id;sensor_type;location;lat;lon;timestamp;temperature;humidity
9699;DHT22;10089;47.876;8.346;2023-02-01T01:03:16;1.10;99.90
9699;DHT22;10089;47.876;8.346;2023-02-01T01:05:46;2.20;99.90
9699;DHT22;10089;47.876;8.346;2023-02-01T01:08:12;2.60;99.90
9699;DHT22;10089;47.876;8.346;2023-02-01T01:10:38;2.90;99.90
9699;DHT22;10089;47.876;8.346;2023-02-01T01:13:04;2.20;99.90
9699;DHT22;10089;47.876;8.346;2023-02-01T01:15:30;1.00;99.90
9699;DHT22;10089;47.876;8.346;2023-02-01T01:17:56;2.30;99.90
9699;DHT22;10089;47.876;8.346;2023-02-01T01:20:21;0.90;99.90
9699;DHT22;10089;47.876;8.346;2023-02-01T01:22:48;0.90;99.90
9699;DHT22;10089;47.876;8.346;2023-02-01T01:25:14;1.90;99.90
9699;DHT22;10089;47.876;8.346;2023-02-01T01:27:40;1.00;99.90
9699;DHT22;10089;47.876;8.346;2023-02-01T01:30:06;1.30;99.90
9699;DHT22;10089;47.876;8.346;2023-02-01T01:32:32;1.00;99.90
9699;DHT22;10089;47.876;8.346;2023-02-01T01:34:58;1.40;99.90
9699;DHT22;10089;47.876;8.346;2023-02-01T01:37:24;1.10;99.90
9699;DHT22;10089;47.876;8.346;2023-02-01T01:39:50;2.50;99.90
9699;DHT22;10089;47.876;8.346;2023-02-01T01:42:15;0.90;99.90
9699;DHT22;10089;47.876;8.346;2023-02-01T01:47:32;0.90;99.90
9699;DHT22;10089;47.876;8.346;2023-02-01T01:49:59;2.40;99.90
9699;DHT22;10089;47.876;8.346;2023-02-01T01:52:25;1.60;99.90
9699;DHT22;10089;47.876;8.346;2023-02-01T01:54:52;2.20;99.90
9699;DHT22;10089;47.876;8.346;2023-02-01T01:57:24;1.10;99.90
9699;DHT22;10089;47.876;8.346;2023-02-01T02:00:08;1.00;99.90
9699;DHT22;10089;47.876;8.346;2023-02-01T02:02:35;0.90;99.90
9699;DHT22;10089;47.876;8.346;2023-02-01T02:05:01;2.40;99.90
9699;DHT22;10089;47.876;8.346;2023-02-01T02:07:31;1.00;99.90
9699;DHT22;10089;47.876;8.346;2023-02-01T02:09:59;3.00;99.90
9699;DHT22;10089;47.876;8.346;2023-02-01T02:12:25;2.80;99.90
9699;DHT22;10089;47.876;8.346;2023-02-01T02:14:51;2.00;99.90
9699;DHT22;10089;47.876;8.346;2023-02-01T02:19:55;2.20;99.90
9699;DHT22;10089;47.876;8.346;2023-02-01T02:45:07;0.80;99.90
9699;DHT22;10089;47.876;8.346;2023-02-01T02:51:03;0.80;99.90
9699;DHT22;10089;47.876;8.346;2023-02-01T02:56:38;1.00;99.90
9699;DHT22;10089;47.876;8.346;2023-02-01T02:59:25;2.10;99.90
9699;DHT22;10089;47.876;8.346;2023-02-01T03:02:11;2.10;99.90
9699;DHT22;10089;47.876;8.346;2023-02-01T03:04:56;1.30;99.90
9699;DHT22;10089;47.876;8.346;2023-02-01T03:12:51;0.90;99.90
9699;DHT22;10089;47.876;8.346;2023-02-01T03:15:24;0.90;99.90
9699;DHT22;10089;47.876;8.346;2023-02-01T03:17:53;2.10;99.90
9699;DHT22;10089;47.876;8.346;2023-02-01T03:20:22;1.80;99.90
9699;DHT22;10089;47.876;8.346;2023-02-01T03:22:51;0.80;99.90
9699;DHT22;10089;47.876;8.346;2023-02-01T03:25:25;0.80;99.90
9699;DHT22;10089;47.876;8.346;2023-02-01T03:28:06;0.80;99.90
9699;DHT22;10089;47.876;8.346;2023-02-01T03:30:40;0.90;99.90
9699;DHT22;10089;47.876;8.346;2023-02-01T03:33:11;0.90;99.90
9699;DHT22;10089;47.876;8.346;2023-02-01T03:36:05;0.80;99.90
9699;DHT22;10089;47.876;8.346;2023-02-01T03:38:48;0.90;99.90
9699;DHT22;10089;47.876;8.346;2023-02-01T03:41:37;0.90;99.90
9699;DHT22;10089;47.876;8.346;2023-02-01T03:44:17;0.90;99.90
9699;DHT22;10089;47.876;8.346;2023-02-01T03:47:05;0.90;99.90
9699;DHT22;10089;47.876;8.346;2023-02-01T03:49:40;1.20;99.90
9699;DHT22;10089;47.876;8.346;2023-02-01T03:52:11;1.00;99.90
9699;DHT22;10089;47.876;8.346;2023-02-01T03:54:39;1.00;99.90
9699;DHT22;10089;47.876;8.346;2023-02-01T03:57:09;1.00;99.90
9699;DHT22;10089;47.876;8.346;2023-02-01T03:59:44;1.60;99.90
9699;DHT22;10089;47.876;8.346;2023-02-01T04:02:10;1.10;99.90
9699;DHT22;10089;47.876;8.346;2023-02-01T04:04:37;2.00;99.90
9699;DHT22;10089;47.876;8.346;2023-02-01T04:07:03;2.60;99.90
9699;DHT22;10089;47.876;8.346;2023-02-01T04:09:29;2.20;99.90
9699;DHT22;10089;47.876;8.346;2023-02-01T04:11:55;1.10;99.90
9699;DHT22;10089;47.876;8.346;2023-02-01T04:14:21;1.30;99.90
9699;DHT22;10089;47.876;8.346;2023-02-01T04:16:46;2.40;99.90
9699;DHT22;10089;47.876;8.346;2023-02-01T04:19:12;2.50;99.90
9699;DHT22;10089;47.876;8.346;2023-02-01T04:21:38;2.30;99.90
9699;DHT22;10089;47.876;8.346;2023-02-01T04:24:04;2.00;99.90
9699;DHT22;10089;47.876;8.346;2023-02-01T04:26:29;1.20;99.90
9699;DHT22;10089;47.876;8.346;2023-02-01T04:28:55;1.80;99.90
9699;DHT22;10089;47.876;8.346;2023-02-01T04:31:21;2.20;99.90
9699;DHT22;10089;47.876;8.346;2023-02-01T04:33:53;2.30;99.90
9699;DHT22;10089;47.876;8.346;2023-02-01T04:36:20;2.10;99.90
9699;DHT22;10089;47.876;8.346;2023-02-01T04:38:50;1.90;99.90
9699;DHT22;10089;47.876;8.346;2023-02-01T04:41:16;2.10;99.90
9699;DHT22;10089;47.876;8.346;2023-02-01T04:43:48;2.60;99.90
9699;DHT22;10089;47.876;8.346;2023-02-01T04:46:15;1.20;99.90
9699;DHT22;10089;47.876;8.346;2023-02-01T04:48:41;1.20;99.90
9699;DHT22;10089;47.876;8.346;2023-02-01T04:51:06;2.70;99.90
9699;DHT22;10089;47.876;8.346;2023-02-01T04:53:32;1.80;99.90
9699;DHT22;10089;47.876;8.346;2023-02-01T04:55:58;2.50;99.90
9699;DHT22;10089;47.876;8.346;2023-02-01T04:58:24;1.90;99.90
9699;DHT22;10089;47.876;8.346;2023-02-01T05:00:49;1.30;99.90
9699;DHT22;10089;47.876;8.346;2023-02-01T05:03:15;1.40;99.90
9699;DHT22;10089;47.876;8.346;2023-02-01T05:05:41;2.30;99.90
9699;DHT22;10089;47.876;8.346;2023-02-01T05:08:07;2.10;99.90
9699;DHT22;10089;47.876;8.346;2023-02-01T05:10:33;1.70;99.90
9699;DHT22;10089;47.876;8.346;2023-02-01T05:12:58;2.30;99.90
9699;DHT22;10089;47.876;8.346;2023-02-01T05:15:42;3.10;99.90
9699;DHT22;10089;47.876;8.346;2023-02-01T05:18:08;1.80;99.90
9699;DHT22;10089;47.876;8.346;2023-02-01T05:20:34;1.30;99.90
9699;DHT22;10089;47.876;8.346;2023-02-01T05:23:00;1.30;99.90
9699;DHT22;10089;47.876;8.346;2023-02-01T05:25:26;1.30;99.90
9699;DHT22;10089;47.876;8.346;2023-02-01T05:27:53;2.40;99.90
9699;DHT22;10089;47.876;8.346;2023-02-01T05:30:18;2.10;99.90
9699;DHT22;10089;47.876;8.346;2023-02-01T05:32:44;1.30;99.90
9699;DHT22;10089;47.876;8.346;2023-02-01T05:35:10;2.00;99.90
9699;DHT22;10089;47.876;8.346;2023-02-01T05:37:35;1.80;99.90
9699;DHT22;10089;47.876;8.346;2023-02-01T05:40:01;1.20;99.90
9699;DHT22;10089;47.876;8.346;2023-02-01T05:42:27;0.80;99.90
9699;DHT22;10089;47.876;8.346;2023-02-01T05:44:52;1.80;99.90
9699;DHT22;10089;47.876;8.346;2023-02-01T05:47:18;2.00;99.90
9699;DHT22;10089;47.876;8.346;2023-02-01T05:49:45;1.80;99.90
9699;DHT22;10089;47.876;8.346;2023-02-01T05:52:11;1.30;99.90
9699;DHT22;10089;47.876;8.346;2023-02-01T05:54:36;0.50;99.90
9699;DHT22;10089;47.876;8.346;2023-02-01T05:57:02;1.50;99.90
9699;DHT22;10089;47.876;8.346;2023-02-01T05:59:28;1.00;99.90
9699;DHT22;10089;47.876;8.346;2023-02-01T06:01:53;1.90;99.90
9699;DHT22;10089;47.876;8.346;2023-02-01T06:04:19;1.90;99.90
9699;DHT22;10089;47.876;8.346;2023-02-01T06:06:44;1.00;99.90
9699;DHT22;10089;47.876;8.346;2023-02-01T06:09:10;0.50;99.90
9699;DHT22;10089;47.876;8.346;2023-02-01T06:11:36;0.50;99.90
9699;DHT22;10089;47.876;8.346;2023-02-01T06:14:02;1.30;99.90
9699;DHT22;10089;47.876;8.346;2023-02-01T06:16:45;0.70;99.90
9699;DHT22;10089;47.876;8.346;2023-02-01T06:19:12;0.80;99.90
9699;DHT22;10089;47.876;8.346;2023-02-01T06:21:38;2.20;99.90
9699;DHT22;10089;47.876;8.346;2023-02-01T06:24:04;1.60;99.90
9699;DHT22;10089;47.876;8.346;2023-02-01T06:29:25;1.20;99.90
9699;DHT22;10089;47.876;8.346;2023-02-01T06:31:52;1.90;99.90
9699;DHT22;10089;47.876;8.346;2023-02-01T06:34:17;2.00;99.90
9699;DHT22;10089;47.876;8.346;2023-02-01T06:36:43;1.20;99.90
9699;DHT22;10089;47.876;8.346;2023-02-01T06:39:09;2.40;99.90
9699;DHT22;10089;47.876;8.346;2023-02-01T06:41:34;1.90;99.90
9699;DHT22;10089;47.876;8.346;2023-02-01T06:44:00;2.40;99.90
9699;DHT22;10089;47.876;8.346;2023-02-01T06:46:26;1.30;99.90
9699;DHT22;10089;47.876;8.346;2023-02-01T06:48:52;2.10;99.90
9699;DHT22;10089;47.876;8.346;2023-02-01T06:51:20;1.50;99.90
9699;DHT22;10089;47.876;8.346;2023-02-01T06:53:46;1.20;99.90
9699;DHT22;10089;47.876;8.346;2023-02-01T06:56:12;2.10;99.90
9699;DHT22;10089;47.876;8.346;2023-02-01T06:58:37;2.20;99.90
9699;DHT22;10089;47.876;8.346;2023-02-01T07:01:06;1.20;99.90
9699;DHT22;10089;47.876;8.346;2023-02-01T07:03:32;2.10;99.90
9699;DHT22;10089;47.876;8.346;2023-02-01T07:06:02;2.00;99.90
9699;DHT22;10089;47.876;8.346;2023-02-01T07:08:30;1.00;99.90
9699;DHT22;10089;47.876;8.346;2023-02-01T07:10:56;2.20;99.90
9699;DHT22;10089;47.876;8.346;2023-02-01T07:13:24;2.40;99.90
9699;DHT22;10089;47.876;8.346;2023-02-01T07:15:49;2.30;99.90
9699;DHT22;10089;47.876;8.346;2023-02-01T07:18:15;1.20;99.90
9699;DHT22;10089;47.876;8.346;2023-02-01T07:20:41;0.30;99.90
9699;DHT22;10089;47.876;8.346;2023-02-01T07:23:10;1.90;99.90
9699;DHT22;10089;47.876;8.346;2023-02-01T07:25:36;2.30;99.90
9699;DHT22;10089;47.876;8.346;2023-02-01T07:28:02;1.80;99.90
9699;DHT22;10089;47.876;8.346;2023-02-01T07:30:27;0.70;99.90
9699;DHT22;10089;47.876;8.346;2023-02-01T07:32:53;0.70;99.90
9699;DHT22;10089;47.876;8.346;2023-02-01T07:35:19;0.70;99.90
9699;DHT22;10089;47.876;8.346;2023-02-01T07:37:45;2.50;99.90
9699;DHT22;10089;47.876;8.346;2023-02-01T07:40:11;0.80;99.90
9699;DHT22;10089;47.876;8.346;2023-02-01T07:42:37;0.80;99.90
9699;DHT22;10089;47.876;8.346;2023-02-01T07:45:03;2.00;99.90
9699;DHT22;10089;47.876;8.346;2023-02-01T07:47:29;0.80;99.90
9699;DHT22;10089;47.876;8.346;2023-02-01T07:49:54;0.90;99.90
9699;DHT22;10089;47.876;8.346;2023-02-01T07:52:20;1.20;99.90
9699;DHT22;10089;47.876;8.346;2023-02-01T07:54:45;1.60;99.90
9699;DHT22;10089;47.876;8.346;2023-02-01T07:57:28;1.00;99.90
9699;DHT22;10089;47.876;8.346;2023-02-01T07:59:53;1.10;99.90
9699;DHT22;10089;47.876;8.346;2023-02-01T08:02:37;1.50;99.90
9699;DHT22;10089;47.876;8.346;2023-02-01T08:05:03;2.20;99.90
9699;DHT22;10089;47.876;8.346;2023-02-01T08:07:30;1.00;99.90
9699;DHT22;10089;47.876;8.346;2023-02-01T08:09:55;0.90;99.90
9699;DHT22;10089;47.876;8.346;2023-02-01T08:12:21;1.50;99.90
9699;DHT22;10089;47.876;8.346;2023-02-01T08:14:47;0.70;99.90
9699;DHT22;10089;47.876;8.346;2023-02-01T08:17:12;2.40;99.90
9699;DHT22;10089;47.876;8.346;2023-02-01T08:19:38;0.80;99.90
9699;DHT22;10089;47.876;8.346;2023-02-01T08:22:04;0.90;99.90
9699;DHT22;10089;47.876;8.346;2023-02-01T08:24:33;1.70;99.90
9699;DHT22;10089;47.876;8.346;2023-02-01T08:27:01;1.90;99.90
9699;DHT22;10089;47.876;8.346;2023-02-01T08:29:26;3.10;99.90
9699;DHT22;10089;47.876;8.346;2023-02-01T08:31:52;2.30;1.00
9699;DHT22;10089;47.876;8.346;2023-02-01T08:34:19;3.10;1.00
9699;DHT22;10089;47.876;8.346;2023-02-01T08:36:45;2.10;1.00
9699;DHT22;10089;47.876;8.346;2023-02-01T08:39:11;2.20;1.00
9699;DHT22;10089;47.876;8.346;2023-02-01T08:41:37;2.10;1.00
9699;DHT22;10089;47.876;8.346;2023-02-01T08:44:03;2.20;1.00
9699;DHT22;10089;47.876;8.346;2023-02-01T08:46:29;1.90;1.00
9699;DHT22;10089;47.876;8.346;2023-02-01T08:48:55;1.80;1.00
9699;DHT22;10089;47.876;8.346;2023-02-01T08:51:22;1.90;1.00
9699;DHT22;10089;47.876;8.346;2023-02-01T08:53:48;2.50;1.00
9699;DHT22;10089;47.876;8.346;2023-02-01T08:56:16;2.20;1.00
9699;DHT22;10089;47.876;8.346;2023-02-01T08:58:42;1.90;1.00
9699;DHT22;10089;47.876;8.346;2023-02-01T09:01:15;2.60;1.00
9699;DHT22;10089;47.876;8.346;2023-02-01T09:03:42;2.80;1.00
9699;DHT22;10089;47.876;8.346;2023-02-01T09:06:10;2.10;1.00
9699;DHT22;10089;47.876;8.346;2023-02-01T09:08:37;2.50;1.00
9699;DHT22;10089;47.876;8.346;2023-02-01T09:11:05;2.10;1.00
9699;DHT22;10089;47.876;8.346;2023-02-01T09:13:32;2.00;1.00
9699;DHT22;10089;47.876;8.346;2023-02-01T09:15:59;2.60;1.00
9699;DHT22;10089;47.876;8.346;2023-02-01T09:18:25;3.10;1.00
9699;DHT22;10089;47.876;8.346;2023-02-01T09:20:51;1.90;1.00
9699;DHT22;10089;47.876;8.346;2023-02-01T09:23:17;2.00;1.00
9699;DHT22;10089;47.876;8.346;2023-02-01T09:25:42;2.00;1.00
9699;DHT22;10089;47.876;8.346;2023-02-01T09:28:09;2.10;1.00
9699;DHT22;10089;47.876;8.346;2023-02-01T09:30:36;3.40;1.00
9699;DHT22;10089;47.876;8.346;2023-02-01T09:33:02;3.20;1.00
9699;DHT22;10089;47.876;8.346;2023-02-01T09:35:28;2.60;1.00
9699;DHT22;10089;47.876;8.346;2023-02-01T09:37:55;3.30;1.00
9699;DHT22;10089;47.876;8.346;2023-02-01T09:40:21;3.00;1.00
9699;DHT22;10089;47.876;8.346;2023-02-01T09:48:20;1.80;1.00
9699;DHT22;10089;47.876;8.346;2023-02-01T09:50:53;1.80;1.00
9699;DHT22;10089;47.876;8.346;2023-02-01T09:53:29;2.80;1.00
9699;DHT22;10089;47.876;8.346;2023-02-01T09:55:59;1.80;1.00
9699;DHT22;10089;47.876;8.346;2023-02-01T09:58:39;1.80;1.00
9699;DHT22;10089;47.876;8.346;2023-02-01T10:01:20;2.50;1.00
9699;DHT22;10089;47.876;8.346;2023-02-01T10:03:47;2.50;1.00
9699;DHT22;10089;47.876;8.346;2023-02-01T10:18:17;2.00;33.40
9699;DHT22;10089;47.876;8.346;2023-02-01T10:24:11;2.00;23.20
9699;DHT22;10089;47.876;8.346;2023-02-01T10:26:48;2.10;33.50
9699;DHT22;10089;47.876;8.346;2023-02-01T10:29:18;2.30;1.00
9699;DHT22;10089;47.876;8.346;2023-02-01T10:31:47;2.50;1.00
9699;DHT22;10089;47.876;8.346;2023-02-01T10:34:28;2.40;1.00
9699;DHT22;10089;47.876;8.346;2023-02-01T10:37:02;2.50;1.00
9699;DHT22;10089;47.876;8.346;2023-02-01T10:39:33;2.50;1.00
9699;DHT22;10089;47.876;8.346;2023-02-01T10:41:58;2.70;1.00
9699;DHT22;10089;47.876;8.346;2023-02-01T10:44:26;2.70;1.00
9699;DHT22;10089;47.876;8.346;2023-02-01T10:46:53;2.90;1.00
9699;DHT22;10089;47.876;8.346;2023-02-01T10:49:43;3.10;1.00
9699;DHT22;10089;47.876;8.346;2023-02-01T10:55:30;2.90;99.90
9699;DHT22;10089;47.876;8.346;2023-02-01T10:57:59;2.80;1.00
9699;DHT22;10089;47.876;8.346;2023-02-01T11:00:25;2.80;1.00
9699;DHT22;10089;47.876;8.346;2023-02-01T11:02:51;2.80;1.00
9699;DHT22;10089;47.876;8.346;2023-02-01T11:05:17;3.30;99.90
9699;DHT22;10089;47.876;8.346;2023-02-01T11:07:53;2.70;1.00
9699;DHT22;10089;47.876;8.346;2023-02-01T11:15:55;2.80;1.00
9699;DHT22;10089;47.876;8.346;2023-02-01T11:18:30;2.90;1.00
9699;DHT22;10089;47.876;8.346;2023-02-01T11:20:56;2.90;1.00
9699;DHT22;10089;47.876;8.346;2023-02-01T11:23:25;3.00;1.00
9699;DHT22;10089;47.876;8.346;2023-02-01T11:26:14;3.00;1.00
9699;DHT22;10089;47.876;8.346;2023-02-01T11:29:10;3.10;1.00
9699;DHT22;10089;47.876;8.346;2023-02-01T11:31:34;3.10;1.00
9699;DHT22;10089;47.876;8.346;2023-02-01T11:34:16;3.20;1.00
9699;DHT22;10089;47.876;8.346;2023-02-01T11:36:44;3.50;1.00
9699;DHT22;10089;47.876;8.346;2023-02-01T11:39:30;3.20;1.00
9699;DHT22;10089;47.876;8.346;2023-02-01T11:42:00;3.20;99.90
9699;DHT22;10089;47.876;8.346;2023-02-01T11:44:37;3.10;99.90
9699;DHT22;10089;47.876;8.346;2023-02-01T11:47:31;3.10;1.00
9699;DHT22;10089;47.876;8.346;2023-02-01T11:50:17;3.00;1.00
9699;DHT22;10089;47.876;8.346;2023-02-01T12:07:12;3.10;99.90
9699;DHT22;10089;47.876;8.346;2023-02-01T12:18:54;2.40;1.00
9699;DHT22;10089;47.876;8.346;2023-02-01T12:24:53;2.40;1.00
9699;DHT22;10089;47.876;8.346;2023-02-01T12:30:16;2.40;1.00
9699;DHT22;10089;47.876;8.346;2023-02-01T12:38:52;2.40;99.90
9699;DHT22;10089;47.876;8.346;2023-02-01T12:41:41;1.80;99.90
9699;DHT22;10089;47.876;8.346;2023-02-01T12:47:26;2.60;22.80
9699;DHT22;10089;47.876;8.346;2023-02-01T12:52:48;2.50;1.00
9699;DHT22;10089;47.876;8.346;2023-02-01T12:55:44;2.70;1.00
9699;DHT22;10089;47.876;8.346;2023-02-01T12:58:38;2.50;99.90
9699;DHT22;10089;47.876;8.346;2023-02-01T13:01:30;3.00;1.00
9699;DHT22;10089;47.876;8.346;2023-02-01T13:06:32;2.80;99.90
9699;DHT22;10089;47.876;8.346;2023-02-01T13:09:23;2.60;1.00
9699;DHT22;10089;47.876;8.346;2023-02-01T13:11:53;2.60;1.00
9699;DHT22;10089;47.876;8.346;2023-02-01T13:17:09;2.40;86.20
9699;DHT22;10089;47.876;8.346;2023-02-01T13:19:47;2.40;99.90
9699;DHT22;10089;47.876;8.346;2023-02-01T13:22:34;2.40;99.90
9699;DHT22;10089;47.876;8.346;2023-02-01T13:25:13;2.30;61.10
9699;DHT22;10089;47.876;8.346;2023-02-01T13:27:39;2.80;99.90
9699;DHT22;10089;47.876;8.346;2023-02-01T13:30:24;3.50;99.90
9699;DHT22;10089;47.876;8.346;2023-02-01T13:44:01;2.30;99.90
9699;DHT22;10089;47.876;8.346;2023-02-01T13:46:28;2.30;91.80
9699;DHT22;10089;47.876;8.346;2023-02-01T13:49:00;3.10;99.90
9699;DHT22;10089;47.876;8.346;2023-02-01T13:51:45;2.60;1.00
9699;DHT22;10089;47.876;8.346;2023-02-01T13:54:42;3.80;1.00
9699;DHT22;10089;47.876;8.346;2023-02-01T13:57:37;2.40;1.00
9699;DHT22;10089;47.876;8.346;2023-02-01T14:10:49;2.40;23.90
9699;DHT22;10089;47.876;8.346;2023-02-01T14:13:29;2.20;99.90
9699;DHT22;10089;47.876;8.346;2023-02-01T14:23:45;2.00;99.90
9699;DHT22;10089;47.876;8.346;2023-02-01T14:26:41;2.50;1.00
9699;DHT22;10089;47.876;8.346;2023-02-01T14:31:44;2.10;99.90
9699;DHT22;10089;47.876;8.346;2023-02-01T14:34:18;2.50;99.90
9699;DHT22;10089;47.876;8.346;2023-02-01T14:37:07;2.10;1.00
9699;DHT22;10089;47.876;8.346;2023-02-01T14:42:29;2.00;99.90
9699;DHT22;10089;47.876;8.346;2023-02-01T14:55:58;2.00;99.90
9699;DHT22;10089;47.876;8.346;2023-02-01T14:58:55;2.00;99.90
9699;DHT22;10089;47.876;8.346;2023-02-01T15:01:32;2.00;99.90
9699;DHT22;10089;47.876;8.346;2023-02-01T15:04:11;2.20;99.90
9699;DHT22;10089;47.876;8.346;2023-02-01T15:06:43;1.90;99.90
9699;DHT22;10089;47.876;8.346;2023-02-01T15:14:44;1.80;99.90
9699;DHT22;10089;47.876;8.346;2023-02-01T15:17:20;1.70;99.90
9699;DHT22;10089;47.876;8.346;2023-02-01T15:20:00;1.80;1.00
9699;DHT22;10089;47.876;8.346;2023-02-01T15:22:29;1.70;1.00
9699;DHT22;10089;47.876;8.346;2023-02-01T15:24:57;2.20;1.00
9699;DHT22;10089;47.876;8.346;2023-02-01T15:27:23;1.60;1.00
9699;DHT22;10089;47.876;8.346;2023-02-01T15:29:49;2.10;1.00
9699;DHT22;10089;47.876;8.346;2023-02-01T15:32:32;2.20;1.00
9699;DHT22;10089;47.876;8.346;2023-02-01T15:34:59;1.60;1.00
9699;DHT22;10089;47.876;8.346;2023-02-01T15:37:28;2.30;1.00
9699;DHT22;10089;47.876;8.346;2023-02-01T15:42:57;2.50;1.00
9699;DHT22;10089;47.876;8.346;2023-02-01T15:45:29;2.20;1.00
9699;DHT22;10089;47.876;8.346;2023-02-01T15:47:58;1.50;1.00
9699;DHT22;10089;47.876;8.346;2023-02-01T15:50:26;1.40;1.00
9699;DHT22;10089;47.876;8.346;2023-02-01T15:52:54;2.50;1.00
9699;DHT22;10089;47.876;8.346;2023-02-01T15:55:38;3.10;1.00
9699;DHT22;10089;47.876;8.346;2023-02-01T15:58:17;1.50;1.00
9699;DHT22;10089;47.876;8.346;2023-02-01T16:00:54;1.70;1.00
9699;DHT22;10089;47.876;8.346;2023-02-01T16:03:36;1.70;1.00
9699;DHT22;10089;47.876;8.346;2023-02-01T16:06:28;1.50;1.00
9699;DHT22;10089;47.876;8.346;2023-02-01T16:09:02;2.70;1.00
9699;DHT22;10089;47.876;8.346;2023-02-01T16:11:33;2.30;1.00
9699;DHT22;10089;47.876;8.346;2023-02-01T16:14:05;1.50;1.00
9699;DHT22;10089;47.876;8.346;2023-02-01T16:16:30;1.50;1.00
9699;DHT22;10089;47.876;8.346;2023-02-01T16:18:56;2.50;1.00
9699;DHT22;10089;47.876;8.346;2023-02-01T16:21:22;1.50;1.00
9699;DHT22;10089;47.876;8.346;2023-02-01T16:23:52;1.80;1.00
9699;DHT22;10089;47.876;8.346;2023-02-01T16:26:18;1.50;1.00
9699;DHT22;10089;47.876;8.346;2023-02-01T16:28:45;1.80;1.00
9699;DHT22;10089;47.876;8.346;2023-02-01T16:31:16;1.50;1.00
9699;DHT22;10089;47.876;8.346;2023-02-01T16:33:47;1.50;1.00
9699;DHT22;10089;47.876;8.346;2023-02-01T16:36:14;2.10;1.00
9699;DHT22;10089;47.876;8.346;2023-02-01T16:38:39;2.60;1.00
9699;DHT22;10089;47.876;8.346;2023-02-01T16:41:05;2.70;1.00
9699;DHT22;10089;47.876;8.346;2023-02-01T16:43:31;1.50;1.00
9699;DHT22;10089;47.876;8.346;2023-02-01T16:46:00;1.40;1.00
9699;DHT22;10089;47.876;8.346;2023-02-01T16:48:30;2.70;1.00
9699;DHT22;10089;47.876;8.346;2023-02-01T16:51:02;3.00;1.00
9699;DHT22;10089;47.876;8.346;2023-02-01T16:53:30;1.40;1.00
9699;DHT22;10089;47.876;8.346;2023-02-01T16:55:56;1.50;1.00
9699;DHT22;10089;47.876;8.346;2023-02-01T16:58:23;1.50;1.00
9699;DHT22;10089;47.876;8.346;2023-02-01T17:00:50;2.70;1.00
9699;DHT22;10089;47.876;8.346;2023-02-01T17:03:18;2.10;1.00
9699;DHT22;10089;47.876;8.346;2023-02-01T17:05:48;1.40;1.00
9699;DHT22;10089;47.876;8.346;2023-02-01T17:08:28;1.50;1.00
9699;DHT22;10089;47.876;8.346;2023-02-01T17:10:54;1.60;1.00
9699;DHT22;10089;47.876;8.346;2023-02-01T17:13:20;2.50;1.00
9699;DHT22;10089;47.876;8.346;2023-02-01T17:18:24;1.30;1.00
9699;DHT22;10089;47.876;8.346;2023-02-01T17:20:58;1.40;1.00
9699;DHT22;10089;47.876;8.346;2023-02-01T17:23:25;1.30;1.00
9699;DHT22;10089;47.876;8.346;2023-02-01T17:25:51;1.40;1.00
9699;DHT22;10089;47.876;8.346;2023-02-01T17:28:18;2.90;1.00
9699;DHT22;10089;47.876;8.346;2023-02-01T17:30:44;1.70;1.00
9699;DHT22;10089;47.876;8.346;2023-02-01T17:33:31;1.50;1.00
9699;DHT22;10089;47.876;8.346;2023-02-01T17:35:58;1.40;1.00
9699;DHT22;10089;47.876;8.346;2023-02-01T17:38:25;2.90;1.00
9699;DHT22;10089;47.876;8.346;2023-02-01T17:40:51;1.70;1.00
9699;DHT22;10089;47.876;8.346;2023-02-01T17:43:21;1.40;1.00
9699;DHT22;10089;47.876;8.346;2023-02-01T17:46:14;1.60;1.00
9699;DHT22;10089;47.876;8.346;2023-02-01T17:48:40;1.40;1.00
9699;DHT22;10089;47.876;8.346;2023-02-01T17:51:17;2.70;1.00
9699;DHT22;10089;47.876;8.346;2023-02-01T17:53:43;1.50;1.00
9699;DHT22;10089;47.876;8.346;2023-02-01T17:56:15;1.50;1.00
9699;DHT22;10089;47.876;8.346;2023-02-01T17:58:41;1.50;1.00
9699;DHT22;10089;47.876;8.346;2023-02-01T18:01:12;1.90;1.00
9699;DHT22;10089;47.876;8.346;2023-02-01T18:03:38;2.60;1.00
9699;DHT22;10089;47.876;8.346;2023-02-01T18:06:08;1.50;99.90
9699;DHT22;10089;47.876;8.346;2023-02-01T18:08:35;1.50;1.00
9699;DHT22;10089;47.876;8.346;2023-02-01T18:11:01;3.60;1.00
9699;DHT22;10089;47.876;8.346;2023-02-01T18:13:28;2.10;1.00
9699;DHT22;10089;47.876;8.346;2023-02-01T18:15:54;1.80;1.00
9699;DHT22;10089;47.876;8.346;2023-02-01T18:18:20;2.60;99.90
9699;DHT22;10089;47.876;8.346;2023-02-01T18:20:47;2.00;1.00
9699;DHT22;10089;47.876;8.346;2023-02-01T18:25:41;2.70;1.00
9699;DHT22;10089;47.876;8.346;2023-02-01T18:28:06;2.50;1.00
9699;DHT22;10089;47.876;8.346;2023-02-01T18:30:34;2.40;1.00
9699;DHT22;10089;47.876;8.346;2023-02-01T18:33:00;1.50;1.00
9699;DHT22;10089;47.876;8.346;2023-02-01T18:35:28;2.50;1.00
9699;DHT22;10089;47.876;8.346;2023-02-01T18:37:55;2.40;1.00
9699;DHT22;10089;47.876;8.346;2023-02-01T18:40:32;1.40;1.00
9699;DHT22;10089;47.876;8.346;2023-02-01T18:42:59;2.10;1.00
9699;DHT22;10089;47.876;8.346;2023-02-01T18:45:36;2.50;1.00
9699;DHT22;10089;47.876;8.346;2023-02-01T18:48:03;1.40;1.00
9699;DHT22;10089;47.876;8.346;2023-02-01T18:50:31;1.70;1.00
9699;DHT22;10089;47.876;8.346;2023-02-01T18:52:59;1.90;1.00
9699;DHT22;10089;47.876;8.346;2023-02-01T18:55:25;2.20;1.00
9699;DHT22;10089;47.876;8.346;2023-02-01T18:57:52;2.70;1.00
9699;DHT22;10089;47.876;8.346;2023-02-01T19:00:19;3.20;1.00
9699;DHT22;10089;47.876;8.346;2023-02-01T19:02:45;1.50;1.00
9699;DHT22;10089;47.876;8.346;2023-02-01T19:05:11;2.90;1.00
9699;DHT22;10089;47.876;8.346;2023-02-01T19:07:38;2.80;1.00
9699;DHT22;10089;47.876;8.346;2023-02-01T19:10:05;3.20;1.00
9699;DHT22;10089;47.876;8.346;2023-02-01T19:12:32;1.30;1.00
9699;DHT22;10089;47.876;8.346;2023-02-01T19:14:59;2.90;99.90
9699;DHT22;10089;47.876;8.346;2023-02-01T19:17:26;2.50;99.90
9699;DHT22;10089;47.876;8.346;2023-02-01T19:19:52;2.70;99.90
9699;DHT22;10089;47.876;8.346;2023-02-01T19:22:18;2.00;99.90
9699;DHT22;10089;47.876;8.346;2023-02-01T19:24:44;1.70;99.90
9699;DHT22;10089;47.876;8.346;2023-02-01T19:27:10;3.50;99.90
9699;DHT22;10089;47.876;8.346;2023-02-01T19:29:36;1.60;99.90
9699;DHT22;10089;47.876;8.346;2023-02-01T19:32:03;1.60;99.90
9699;DHT22;10089;47.876;8.346;2023-02-01T19:34:30;1.50;1.00
9699;DHT22;10089;47.876;8.346;2023-02-01T19:37:19;1.60;1.00
9699;DHT22;10089;47.876;8.346;2023-02-01T19:39:44;1.60;1.00
9699;DHT22;10089;47.876;8.346;2023-02-01T19:42:30;2.00;1.00
9699;DHT22;10089;47.876;8.346;2023-02-01T19:44:56;1.50;1.00
9699;DHT22;10089;47.876;8.346;2023-02-01T19:47:22;1.60;1.00
9699;DHT22;10089;47.876;8.346;2023-02-01T19:49:48;2.30;1.00
9699;DHT22;10089;47.876;8.346;2023-02-01T19:52:13;1.50;1.00
9699;DHT22;10089;47.876;8.346;2023-02-01T19:54:39;3.30;1.00
9699;DHT22;10089;47.876;8.346;2023-02-01T19:57:05;2.30;1.00
9699;DHT22;10089;47.876;8.346;2023-02-01T19:59:31;1.50;1.00
9699;DHT22;10089;47.876;8.346;2023-02-01T20:01:57;3.00;1.00
9699;DHT22;10089;47.876;8.346;2023-02-01T20:04:23;1.50;1.00
9699;DHT22;10089;47.876;8.346;2023-02-01T20:06:49;3.20;1.00
9699;DHT22;10089;47.876;8.346;2023-02-01T20:09:19;3.10;1.00
9699;DHT22;10089;47.876;8.346;2023-02-01T20:11:56;2.50;1.00
9699;DHT22;10089;47.876;8.346;2023-02-01T20:14:23;2.00;1.00
9699;DHT22;10089;47.876;8.346;2023-02-01T20:16:51;2.80;1.00
9699;DHT22;10089;47.876;8.346;2023-02-01T20:19:17;2.80;1.00
9699;DHT22;10089;47.876;8.346;2023-02-01T20:21:43;1.40;1.00
9699;DHT22;10089;47.876;8.346;2023-02-01T20:24:12;2.80;1.00
9699;DHT22;10089;47.876;8.346;2023-02-01T20:26:39;2.10;1.00
9699;DHT22;10089;47.876;8.346;2023-02-01T20:29:05;2.10;1.00